Time;durP1;ratioP1;P1;durP2;ratioP2;P2;SDS_P1;SDS_P2;PMS_P1;PMS_P2;Temp;Humidity;BMP_temperature;BMP_pressure;BME280_temperature;BME280_humidity;BME280_pressure;Samples;Min_cycle;Max_cycle;Signal;HPM_P1;HPM_P2
2022/11/23 00:01:16;;;;;;;61.17;10.65;;;11.00;91.00;;;;;;5127379;28;20038;-55
2022/11/23 00:03:43;;;;;;;57.15;10.45;;;10.90;91.00;;;;;;5110311;28;20050;-55
2022/11/23 00:06:08;;;;;;;61.05;10.88;;;10.90;91.00;;;;;;5146460;28;20053;-55
2022/11/23 00:08:34;;;;;;;66.32;10.77;;;10.90;91.00;;;;;;5146352;28;20047;-56
2022/11/23 00:11:00;;;;;;;51.72;9.38;;;10.90;91.10;;;;;;5127400;28;20091;-55
2022/11/23 00:13:25;;;;;;;53.75;11.00;;;10.90;91.00;;;;;;5127411;28;20039;-55
2022/11/23 00:15:51;;;;;;;63.92;10.38;;;10.90;90.90;;;;;;5145644;28;20038;-55
2022/11/23 00:18:17;;;;;;;63.47;10.70;;;10.90;90.90;;;;;;5145645;28;20397;-55
2022/11/23 00:20:42;;;;;;;45.70;8.55;;;10.90;90.90;;;;;;5126972;28;20041;-55
2022/11/23 00:23:08;;;;;;;49.22;9.88;;;10.90;91.00;;;;;;5145417;28;20045;-55
2022/11/23 00:25:34;;;;;;;55.53;9.80;;;10.80;91.00;;;;;;5127255;28;20322;-55
2022/11/23 00:27:59;;;;;;;47.17;8.88;;;10.80;91.00;;;;;;5144210;28;20092;-55
2022/11/23 00:30:25;;;;;;;55.90;9.82;;;10.80;91.00;;;;;;5144215;28;20049;-55
2022/11/23 00:32:50;;;;;;;60.28;10.60;;;10.80;91.10;;;;;;5144154;28;20088;-55
2022/11/23 00:35:16;;;;;;;42.85;9.30;;;10.80;91.10;;;;;;5145480;28;20019;-55
2022/11/23 00:37:41;;;;;;;43.92;8.25;;;10.80;91.10;;;;;;5145729;27;20027;-55
2022/11/23 00:40:07;;;;;;;50.60;9.60;;;10.80;91.10;;;;;;5148642;27;20031;-55
2022/11/23 00:42:33;;;;;;;43.63;9.05;;;10.70;91.10;;;;;;5149046;27;20031;-55
2022/11/23 00:44:59;;;;;;;51.97;8.73;;;10.70;91.10;;;;;;5130914;27;20366;-55
2022/11/23 00:47:24;;;;;;;45.22;9.25;;;10.70;91.50;;;;;;5130679;27;20523;-55
2022/11/23 00:49:50;;;;;;;42.65;9.07;;;10.70;91.20;;;;;;5149041;27;20019;-55
2022/11/23 00:52:15;;;;;;;37.20;7.68;;;10.70;91.20;;;;;;5113524;27;20031;-55
2022/11/23 00:54:41;;;;;;;44.17;8.60;;;10.70;91.20;;;;;;5149186;27;20402;-55
2022/11/23 00:57:06;;;;;;;37.33;8.13;;;11.00;91.30;;;;;;5147601;27;20361;-55
2022/11/23 00:59:32;;;;;;;43.80;8.57;;;10.70;91.20;;;;;;5147830;27;20034;-55
2022/11/23 01:01:57;;;;;;;33.03;8.57;;;10.60;91.20;;;;;;5149026;27;20499;-55
2022/11/23 01:04:23;;;;;;;37.90;8.80;;;10.70;91.30;;;;;;5148956;27;20046;-55
2022/11/23 01:06:48;;;;;;;45.28;9.48;;;10.70;91.30;;;;;;5148950;27;20077;-55
2022/11/23 01:09:20;;;;;;;35.90;8.90;;;10.70;91.30;;;;;;5147512;27;20038;-55
2022/11/23 01:11:45;;;;;;;36.38;8.63;;;10.60;91.20;;;;;;5147402;27;20117;-55
2022/11/23 01:14:11;;;;;;;37.45;9.13;;;10.60;91.20;;;;;;5148566;27;20012;-55
2022/11/23 01:16:37;;;;;;;37.45;8.35;;;10.60;91.30;;;;;;5147060;27;20027;-55
2022/11/23 01:19:05;;;;;;;34.33;7.57;;;10.60;91.30;;;;;;5147242;27;20019;-55
2022/11/23 01:21:31;;;;;;;27.30;7.88;;;10.60;91.30;;;;;;5148534;27;20035;-55
2022/11/23 01:23:56;;;;;;;43.08;8.80;;;10.60;91.30;;;;;;5148646;27;20034;-55
2022/11/23 01:26:22;;;;;;;35.88;8.57;;;10.60;91.30;;;;;;5147113;27;20043;-55
2022/11/23 01:28:48;;;;;;;33.80;8.00;;;10.60;91.30;;;;;;5148478;27;20041;-55
2022/11/23 01:31:21;;;;;;;30.58;8.15;;;10.50;91.30;;;;;;5129631;27;20039;-55
2022/11/23 01:33:46;;;;;;;33.85;8.43;;;10.50;91.30;;;;;;5147048;27;20464;-56
2022/11/23 01:36:17;;;;;;;36.38;8.38;;;10.50;91.30;;;;;;5148354;27;20087;-55
2022/11/23 01:38:42;;;;;;;27.05;7.15;;;10.50;91.30;;;;;;5148149;27;20031;-55
2022/11/23 01:41:09;;;;;;;34.83;7.38;;;10.50;91.40;;;;;;5146705;27;20111;-55
2022/11/23 01:43:35;;;;;;;40.00;7.55;;;10.50;91.40;;;;;;5129522;27;20027;-55
2022/11/23 01:46:01;;;;;;;43.17;8.13;;;10.50;91.40;;;;;;5146564;27;20139;-55
2022/11/23 01:48:31;;;;;;;37.10;7.82;;;10.40;91.40;;;;;;5148058;27;20087;-55
2022/11/23 01:50:57;;;;;;;32.83;7.97;;;10.40;91.40;;;;;;5129246;27;20420;-55
2022/11/23 01:53:23;;;;;;;36.35;8.45;;;10.40;91.50;;;;;;5146421;27;20023;-55
2022/11/23 01:55:49;;;;;;;39.25;7.57;;;10.40;91.40;;;;;;5129391;27;20023;-55
2022/11/23 01:58:16;;;;;;;29.80;7.82;;;10.40;91.40;;;;;;5146583;27;20114;-55
2022/11/23 02:00:41;;;;;;;27.42;6.85;;;10.40;91.30;;;;;;5129490;27;20027;-55
2022/11/23 02:03:07;;;;;;;25.13;7.43;;;10.40;91.40;;;;;;5146771;27;20034;-55
2022/11/23 02:05:37;;;;;;;21.67;6.53;;;10.40;91.30;;;;;;5146043;27;20027;-55
2022/11/23 02:08:02;;;;;;;19.63;6.43;;;10.30;91.30;;;;;;5129520;27;20042;-55
2022/11/23 02:10:29;;;;;;;21.02;6.63;;;10.30;91.30;;;;;;5129443;27;20078;-55
2022/11/23 02:12:54;;;;;;;26.92;7.45;;;10.30;91.30;;;;;;5129159;27;20091;-55
2022/11/23 02:15:20;;;;;;;27.92;6.10;;;10.30;91.30;;;;;;5129133;27;20023;-55
2022/11/23 02:17:45;;;;;;;31.90;6.85;;;10.30;91.40;;;;;;5146031;27;20080;-55
2022/11/23 02:20:15;;;;;;;22.67;6.70;;;10.30;91.40;;;;;;5146016;27;20019;-55
2022/11/23 02:22:50;;;;;;;24.58;6.50;;;10.20;91.40;;;;;;5145913;27;20076;-55
2022/11/23 02:25:38;;;;;;;25.60;6.65;;;10.20;91.40;;;;;;5147047;27;20501;-55
2022/11/23 02:28:03;;;;;;;19.08;5.70;;;10.20;91.40;;;;;;5146197;27;20027;-55
2022/11/23 02:30:29;;;;;;;19.35;6.15;;;10.20;91.50;;;;;;5145937;27;20479;-55
2022/11/23 02:32:55;;;;;;;27.17;5.85;;;10.10;91.40;;;;;;5145711;27;20522;-55
2022/11/23 02:35:20;;;;;;;18.30;5.45;;;10.10;91.50;;;;;;5128625;27;20019;-55
2022/11/23 02:37:46;;;;;;;19.10;5.53;;;10.10;91.50;;;;;;5145726;27;20023;-55
2022/11/23 02:40:27;;;;;;;15.90;5.25;;;10.10;91.50;;;;;;5128470;27;20090;-55
2022/11/23 02:42:53;;;;;;;19.23;5.00;;;10.10;91.40;;;;;;5145526;27;20039;-55
2022/11/23 02:45:36;;;;;;;16.48;4.88;;;10.10;91.50;;;;;;5146851;27;20110;-55
2022/11/23 02:48:02;;;;;;;17.38;4.57;;;10.00;91.50;;;;;;5145855;27;20078;-56
2022/11/23 02:50:27;;;;;;;11.13;4.25;;;10.00;91.30;;;;;;5146938;27;20329;-55
2022/11/23 02:52:53;;;;;;;15.77;4.60;;;10.00;91.30;;;;;;5146655;27;20106;-56
2022/11/23 02:55:18;;;;;;;11.90;4.20;;;10.00;91.40;;;;;;5128268;27;20040;-55
2022/11/23 02:57:44;;;;;;;17.40;4.97;;;10.00;91.40;;;;;;5146898;27;20026;-55
2022/11/23 03:00:10;;;;;;;11.20;4.50;;;10.00;91.40;;;;;;5145464;27;20034;-55
2022/11/23 03:02:36;;;;;;;14.15;4.47;;;10.00;91.60;;;;;;5146289;27;20062;-55
2022/11/23 03:05:01;;;;;;;12.88;4.50;;;9.90;91.60;;;;;;5145408;27;20023;-55
2022/11/23 03:07:27;;;;;;;15.52;5.47;;;9.90;91.70;;;;;;5146812;27;20361;-55
2022/11/23 03:09:52;;;;;;;12.60;5.13;;;9.90;91.60;;;;;;5146519;27;20068;-55
2022/11/23 03:12:18;;;;;;;11.10;4.80;;;9.90;91.70;;;;;;5145102;27;20031;-55
2022/11/23 03:14:43;;;;;;;13.82;4.85;;;9.90;91.70;;;;;;5127951;27;20023;-55
2022/11/23 03:17:09;;;;;;;11.43;5.22;;;9.90;91.70;;;;;;5145174;27;20027;-55
2022/11/23 03:19:34;;;;;;;15.93;5.55;;;9.90;91.70;;;;;;5146558;27;20049;-55
2022/11/23 03:22:00;;;;;;;11.93;4.93;;;9.90;91.90;;;;;;5145276;27;20042;-55
2022/11/23 03:24:25;;;;;;;12.07;4.80;;;9.80;91.80;;;;;;5144902;27;20023;-55
2022/11/23 03:26:51;;;;;;;13.77;4.30;;;9.80;91.80;;;;;;5146393;27;20035;-55
2022/11/23 03:29:17;;;;;;;12.38;4.63;;;9.80;91.80;;;;;;5144969;27;20088;-55
2022/11/23 03:31:42;;;;;;;10.32;4.60;;;9.80;91.70;;;;;;5146250;27;20035;-55
2022/11/23 03:34:09;;;;;;;14.52;4.85;;;9.80;91.60;;;;;;5144982;28;20019;-55
2022/11/23 03:36:34;;;;;;;14.63;4.47;;;9.70;91.70;;;;;;5146252;28;20067;-55
2022/11/23 03:39:00;;;;;;;9.95;4.10;;;9.70;91.70;;;;;;5146053;28;20031;-55
2022/11/23 03:41:25;;;;;;;12.90;4.47;;;9.70;91.70;;;;;;5127336;28;20136;-55
2022/11/23 03:43:51;;;;;;;12.20;3.88;;;9.70;91.70;;;;;;5144666;28;20063;-55
2022/11/23 03:46:16;;;;;;;16.38;4.50;;;9.60;91.80;;;;;;5146000;28;20031;-55
2022/11/23 03:48:42;;;;;;;8.65;3.65;;;9.60;91.80;;;;;;5146125;28;20119;-55
2022/11/23 03:51:08;;;;;;;7.43;3.92;;;9.60;91.80;;;;;;5145966;28;20130;-55
2022/11/23 03:53:33;;;;;;;13.43;4.18;;;9.60;91.80;;;;;;5145962;28;20023;-55
2022/11/23 03:55:59;;;;;;;11.98;4.00;;;9.60;91.90;;;;;;5144483;28;20034;-55
2022/11/23 03:58:24;;;;;;;10.07;4.22;;;9.50;91.90;;;;;;5127402;28;20023;-55
2022/11/23 04:00:50;;;;;;;10.50;4.30;;;9.60;91.90;;;;;;5145833;28;20055;-55
2022/11/23 04:03:15;;;;;;;8.95;3.88;;;9.50;92.00;;;;;;5144714;28;20027;-56
2022/11/23 04:05:41;;;;;;;16.10;5.65;;;9.50;92.00;;;;;;5144617;28;20039;-55
2022/11/23 04:08:06;;;;;;;13.20;5.22;;;9.50;92.00;;;;;;5144688;28;20019;-55
2022/11/23 04:10:32;;;;;;;9.77;4.82;;;9.50;92.00;;;;;;5144498;28;20026;-55
2022/11/23 04:12:57;;;;;;;11.65;4.75;;;9.50;92.10;;;;;;5144828;27;20023;-55
2022/11/23 04:15:23;;;;;;;14.88;4.93;;;9.40;92.10;;;;;;5149273;27;20016;-55
2022/11/23 04:17:49;;;;;;;10.85;5.30;;;9.40;92.10;;;;;;5131344;27;20027;-55
2022/11/23 04:20:14;;;;;;;11.95;4.97;;;9.40;92.10;;;;;;5131184;27;20026;-55
2022/11/23 04:22:40;;;;;;;11.23;5.60;;;9.40;92.10;;;;;;5149773;27;20031;-55
2022/11/23 04:25:06;;;;;;;12.23;5.70;;;9.40;92.10;;;;;;5148473;27;20468;-55
2022/11/23 04:27:31;;;;;;;15.40;5.55;;;9.40;92.00;;;;;;5131165;27;20486;-55
2022/11/23 04:29:57;;;;;;;14.35;6.40;;;9.40;92.00;;;;;;5149693;27;20105;-55
2022/11/23 04:32:22;;;;;;;16.33;6.03;;;9.30;92.00;;;;;;5147970;27;20042;-55
2022/11/23 04:34:48;;;;;;;11.88;5.50;;;9.30;92.10;;;;;;5148236;27;20022;-55
2022/11/23 04:37:13;;;;;;;13.35;5.22;;;9.30;92.10;;;;;;5149646;27;20422;-55
2022/11/23 04:39:39;;;;;;;17.42;5.25;;;9.30;92.10;;;;;;5149251;27;20026;-55
2022/11/23 04:42:04;;;;;;;11.25;6.13;;;9.30;92.10;;;;;;5147810;27;20149;-55
2022/11/23 04:44:30;;;;;;;11.75;5.55;;;9.20;92.10;;;;;;5130511;27;20123;-55
2022/11/23 04:46:56;;;;;;;24.85;6.47;;;9.20;92.10;;;;;;5149052;27;20353;-55
2022/11/23 04:49:21;;;;;;;16.10;7.18;;;9.30;92.10;;;;;;5147693;27;20019;-55
2022/11/23 04:51:47;;;;;;;15.73;7.70;;;9.20;91.90;;;;;;5147769;27;20037;-55
2022/11/23 04:54:12;;;;;;;15.60;7.07;;;9.20;91.80;;;;;;5149039;27;20051;-55
2022/11/23 04:56:38;;;;;;;12.98;6.50;;;9.20;91.90;;;;;;5149000;27;20042;-55
2022/11/23 04:59:03;;;;;;;15.55;6.75;;;9.20;92.00;;;;;;5149158;27;20545;-55
2022/11/23 05:01:29;;;;;;;13.10;6.65;;;9.10;92.00;;;;;;5113370;27;20402;-55
2022/11/23 05:03:54;;;;;;;12.20;6.30;;;9.20;92.10;;;;;;5148830;27;20044;-55
2022/11/23 05:06:20;;;;;;;21.50;6.93;;;9.10;92.00;;;;;;5147427;27;20468;-55
2022/11/23 05:08:45;;;;;;;24.90;7.60;;;9.10;92.10;;;;;;5129939;27;20023;-55
2022/11/23 05:11:11;;;;;;;26.63;7.43;;;9.10;92.10;;;;;;5130073;27;20031;-55
2022/11/23 05:13:36;;;;;;;37.47;10.65;;;9.00;92.10;;;;;;5148831;27;20041;-55
2022/11/23 05:16:02;;;;;;;34.90;9.32;;;9.10;92.10;;;;;;5130071;27;20063;-55
2022/11/23 05:18:28;;;;;;;30.90;8.77;;;9.00;92.10;;;;;;5147379;27;20075;-55
2022/11/23 05:20:53;;;;;;;51.45;10.90;;;9.00;92.20;;;;;;5148258;27;20390;-55
2022/11/23 05:23:19;;;;;;;47.42;10.20;;;9.00;92.20;;;;;;5129897;27;20023;-55
2022/11/23 05:25:44;;;;;;;28.80;9.68;;;9.00;92.20;;;;;;5129594;27;20019;-55
2022/11/23 05:28:18;;;;;;;35.33;9.07;;;9.00;92.20;;;;;;5147087;27;20049;-55
2022/11/23 05:30:43;;;;;;;32.63;9.32;;;9.00;92.10;;;;;;5146988;27;20031;-55
2022/11/23 05:33:09;;;;;;;31.15;9.32;;;9.00;92.10;;;;;;5148380;27;20019;-55
2022/11/23 05:35:34;;;;;;;36.92;10.32;;;8.90;92.10;;;;;;5129532;27;20025;-55
2022/11/23 05:38:00;;;;;;;40.15;10.50;;;8.90;92.20;;;;;;5112614;27;20554;-55
2022/11/23 05:40:26;;;;;;;28.50;9.23;;;8.90;92.10;;;;;;5129516;27;20022;-56
2022/11/23 05:42:56;;;;;;;24.60;9.93;;;8.90;92.10;;;;;;5147857;27;20052;-55
2022/11/23 05:45:21;;;;;;;31.48;9.65;;;8.90;92.10;;;;;;5146661;27;20163;-55
2022/11/23 05:47:54;;;;;;;24.88;10.13;;;8.90;92.10;;;;;;5129413;27;20039;-55
2022/11/23 05:50:20;;;;;;;33.10;8.95;;;8.90;92.10;;;;;;5129134;27;20023;-55
2022/11/23 05:52:46;;;;;;;31.30;10.35;;;8.90;92.10;;;;;;5146626;27;20548;-55
2022/11/23 05:55:11;;;;;;;39.80;10.00;;;8.90;92.10;;;;;;5129027;27;20019;-55
2022/11/23 05:57:37;;;;;;;35.90;10.20;;;8.90;92.10;;;;;;5129447;27;20051;-55
2022/11/23 06:00:06;;;;;;;45.38;10.02;;;8.90;92.10;;;;;;5147811;27;20022;-55
2022/11/23 06:02:31;;;;;;;37.65;9.13;;;8.90;92.10;;;;;;5095269;27;20034;-55
2022/11/23 06:04:57;;;;;;;35.80;9.35;;;8.80;92.10;;;;;;5147652;27;20023;-55
2022/11/23 06:07:23;;;;;;;25.35;8.85;;;8.80;92.10;;;;;;5146082;27;20053;-55
2022/11/23 06:09:48;;;;;;;35.55;9.00;;;8.80;92.10;;;;;;5146255;27;20046;-55
2022/11/23 06:12:14;;;;;;;31.05;9.50;;;8.90;92.20;;;;;;5147375;27;20100;-55
2022/11/23 06:14:39;;;;;;;25.88;9.07;;;8.80;92.20;;;;;;5147622;27;20088;-55
2022/11/23 06:17:05;;;;;;;27.85;8.68;;;8.80;92.30;;;;;;5148013;27;20037;-56
2022/11/23 06:19:30;;;;;;;28.55;7.88;;;8.80;92.40;;;;;;5128880;27;20027;-55
2022/11/23 06:21:56;;;;;;;30.88;9.23;;;8.70;92.40;;;;;;5147398;27;20460;-55
2022/11/23 06:24:24;;;;;;;35.85;10.63;;;8.70;92.50;;;;;;5147195;27;20030;-55
2022/11/23 06:26:51;;;;;;;31.98;10.20;;;8.70;92.60;;;;;;5146424;27;20061;-55
2022/11/23 06:29:17;;;;;;;25.38;8.73;;;8.70;92.70;;;;;;5111624;27;20042;-55
2022/11/23 06:31:42;;;;;;;32.22;9.65;;;8.70;92.70;;;;;;5145914;27;20035;-55
2022/11/23 06:34:08;;;;;;;30.88;8.27;;;8.70;92.70;;;;;;5147184;27;20019;-55
2022/11/23 06:36:34;;;;;;;27.92;8.48;;;8.70;92.70;;;;;;5145093;27;20035;-55
2022/11/23 06:38:59;;;;;;;46.17;8.90;;;8.60;92.70;;;;;;5111249;27;20015;-55
2022/11/23 06:41:25;;;;;;;27.83;9.30;;;8.60;92.70;;;;;;5146725;27;20031;-55
2022/11/23 06:43:50;;;;;;;32.00;8.75;;;8.60;92.80;;;;;;5147017;27;20080;-55
2022/11/23 06:46:16;;;;;;;26.08;8.40;;;8.60;92.80;;;;;;5146742;27;20467;-55
2022/11/23 06:48:45;;;;;;;27.23;9.10;;;8.60;92.80;;;;;;5128178;27;20029;-55
2022/11/23 06:51:11;;;;;;;23.95;8.27;;;8.60;92.80;;;;;;5127803;27;20027;-55
2022/11/23 06:53:36;;;;;;;29.85;8.77;;;8.60;92.80;;;;;;5128012;27;20027;-55
2022/11/23 06:56:02;;;;;;;30.27;8.88;;;8.50;92.80;;;;;;5145129;27;20042;-55
2022/11/23 06:58:28;;;;;;;24.55;7.45;;;8.50;92.80;;;;;;5128000;27;20096;-55
2022/11/23 07:00:53;;;;;;;30.60;8.43;;;8.50;92.80;;;;;;5128085;27;20402;-55
2022/11/23 07:03:23;;;;;;;25.45;8.02;;;8.50;92.80;;;;;;5145071;27;20114;-55
2022/11/23 07:05:48;;;;;;;21.17;7.80;;;8.50;92.70;;;;;;5145198;27;20030;-55
2022/11/23 07:08:14;;;;;;;29.95;7.88;;;8.50;92.70;;;;;;5146728;27;20031;-56
2022/11/23 07:10:40;;;;;;;18.85;6.93;;;8.50;92.70;;;;;;5145119;27;20038;-55
2022/11/23 07:13:06;;;;;;;33.35;7.93;;;8.40;92.70;;;;;;5146017;27;20403;-55
2022/11/23 07:15:31;;;;;;;18.15;6.63;;;8.40;92.70;;;;;;5146150;27;20023;-55
2022/11/23 07:17:57;;;;;;;21.38;7.30;;;8.40;92.70;;;;;;5144793;27;20072;-55
2022/11/23 07:20:22;;;;;;;19.67;6.95;;;8.40;92.70;;;;;;5146094;27;20053;-55
2022/11/23 07:22:57;;;;;;;16.63;6.15;;;8.40;92.70;;;;;;5127571;27;20467;-55
2022/11/23 07:25:22;;;;;;;15.90;6.25;;;8.40;92.70;;;;;;5144615;27;20023;-55
2022/11/23 07:27:54;;;;;;;18.38;7.57;;;8.40;92.70;;;;;;5144566;27;20096;-55
2022/11/23 07:30:20;;;;;;;19.77;6.30;;;8.40;92.60;;;;;;5145850;27;20487;-55
2022/11/23 07:32:45;;;;;;;26.98;7.72;;;8.40;92.70;;;;;;5145891;27;20035;-55
2022/11/23 07:35:11;;;;;;;15.75;6.15;;;8.30;92.60;;;;;;5146089;27;20046;-55
2022/11/23 07:37:37;;;;;;;20.60;7.88;;;8.40;92.90;;;;;;5127609;28;20106;-57
2022/11/23 07:40:03;;;;;;;22.33;7.53;;;8.40;92.60;;;;;;5144551;28;20027;-55
2022/11/23 07:42:29;;;;;;;27.40;7.18;;;8.30;92.60;;;;;;5144418;28;20444;-55
2022/11/23 07:44:54;;;;;;;20.40;6.90;;;8.30;92.80;;;;;;5145640;28;20027;-55
2022/11/23 07:47:20;;;;;;;23.42;7.07;;;8.30;92.80;;;;;;5145904;27;20023;-55
2022/11/23 07:49:45;;;;;;;22.83;6.78;;;8.40;92.90;;;;;;5149956;27;20027;-55
2022/11/23 07:52:11;;;;;;;23.88;6.57;;;8.40;92.80;;;;;;5148393;27;20050;-55
2022/11/23 07:54:36;;;;;;;18.42;6.55;;;8.40;92.70;;;;;;5148448;27;20027;-55
2022/11/23 07:57:02;;;;;;;16.00;6.45;;;8.40;92.70;;;;;;5114298;27;20031;-55
2022/11/23 07:59:28;;;;;;;20.10;6.38;;;8.40;92.70;;;;;;5149624;27;20023;-55
2022/11/23 08:01:53;;;;;;;14.68;6.18;;;8.30;92.70;;;;;;5148487;27;20031;-55
2022/11/23 08:04:19;;;;;;;15.75;5.90;;;8.30;92.70;;;;;;5150082;27;20391;-56
2022/11/23 08:06:44;;;;;;;27.05;6.15;;;8.30;92.70;;;;;;5150372;27;20031;-55
2022/11/23 08:09:10;;;;;;;18.88;6.30;;;8.30;92.70;;;;;;5150178;27;20440;-55
2022/11/23 08:11:36;;;;;;;19.05;6.57;;;8.30;92.80;;;;;;5149982;27;20091;-55
2022/11/23 08:14:01;;;;;;;26.80;6.45;;;8.30;92.80;;;;;;5149845;27;20035;-55
2022/11/23 08:16:27;;;;;;;26.23;6.45;;;8.30;92.80;;;;;;5119766;28;20023;-55
2022/11/23 08:18:52;;;;;;;23.60;6.22;;;8.30;92.90;;;;;;5143749;27;20041;-55
2022/11/23 08:21:18;;;;;;;32.00;6.28;;;8.30;92.90;;;;;;5134899;27;20035;-55
2022/11/23 08:23:43;;;;;;;19.08;5.95;;;8.30;92.90;;;;;;5119297;27;20023;-55
2022/11/23 08:26:09;;;;;;;18.27;5.90;;;8.30;92.90;;;;;;5148463;27;20031;-55
2022/11/23 08:28:36;;;;;;;26.58;6.88;;;8.30;92.90;;;;;;5135901;27;20083;-55
2022/11/23 08:31:06;;;;;;;25.80;6.70;;;8.30;92.90;;;;;;5110360;28;20092;-55
2022/11/23 08:33:32;;;;;;;29.75;7.82;;;8.30;93.00;;;;;;5128764;28;20084;-55
2022/11/23 08:36:05;;;;;;;30.55;6.50;;;8.30;93.00;;;;;;5116255;27;20020;-55
2022/11/23 08:38:31;;;;;;;31.88;6.85;;;8.40;93.00;;;;;;5110143;27;20019;-55
2022/11/23 08:40:58;;;;;;;24.17;5.80;;;8.40;93.00;;;;;;5099309;27;20039;-55
2022/11/23 08:43:24;;;;;;;24.42;5.47;;;8.30;93.00;;;;;;5125858;27;20050;-55
2022/11/23 08:45:58;;;;;;;24.02;6.75;;;8.40;92.90;;;;;;5125761;27;20055;-55
2022/11/23 08:48:24;;;;;;;26.63;6.03;;;8.40;93.00;;;;;;5108191;27;20023;-55
2022/11/23 08:50:49;;;;;;;43.45;8.07;;;8.40;93.00;;;;;;5144111;27;20055;-55
2022/11/23 08:53:15;;;;;;;26.92;6.20;;;8.40;93.00;;;;;;5124373;28;20028;-56
2022/11/23 08:55:41;;;;;;;22.58;5.80;;;8.30;93.00;;;;;;5094634;27;20070;-55
2022/11/23 08:58:07;;;;;;;28.85;7.20;;;8.40;93.10;;;;;;5145548;27;20019;-55
2022/11/23 09:00:32;;;;;;;30.60;6.88;;;8.40;93.00;;;;;;5138614;27;20055;-55
2022/11/23 09:02:58;;;;;;;28.75;6.85;;;8.40;93.30;;;;;;5091352;27;20032;-55
2022/11/23 09:05:25;;;;;;;28.27;6.90;;;8.40;93.10;;;;;;5119560;27;20050;-55
2022/11/23 09:07:50;;;;;;;36.63;6.15;;;8.40;93.10;;;;;;5143475;27;20034;-55
2022/11/23 09:10:16;;;;;;;45.58;6.50;;;8.40;93.10;;;;;;5123046;27;20023;-55
2022/11/23 09:12:41;;;;;;;61.58;8.65;;;8.40;93.10;;;;;;5123502;27;20030;-55
2022/11/23 09:15:07;;;;;;;40.20;7.40;;;8.40;93.20;;;;;;5120331;27;20072;-55
2022/11/23 09:17:33;;;;;;;49.63;8.93;;;8.40;93.20;;;;;;5116544;27;20026;-55
2022/11/23 09:19:59;;;;;;;33.53;6.85;;;8.40;93.30;;;;;;5141877;27;20027;-55
2022/11/23 09:22:25;;;;;;;34.75;6.28;;;8.50;93.30;;;;;;5127419;27;20132;-55
2022/11/23 09:24:51;;;;;;;31.17;6.60;;;8.50;93.30;;;;;;5143632;27;20474;-55
2022/11/23 09:27:17;;;;;;;37.67;6.22;;;8.50;93.30;;;;;;5125458;27;20034;-55
2022/11/23 09:29:42;;;;;;;32.75;6.88;;;8.50;93.30;;;;;;5111137;28;20032;-55
2022/11/23 09:32:08;;;;;;;37.50;6.75;;;8.50;93.30;;;;;;5139183;27;20060;-55
2022/11/23 09:34:33;;;;;;;31.27;7.00;;;8.50;93.30;;;;;;5123557;27;20023;-55
2022/11/23 09:36:59;;;;;;;39.45;6.57;;;8.50;93.30;;;;;;5141036;27;20023;-55
2022/11/23 09:39:25;;;;;;;28.95;6.90;;;8.50;93.40;;;;;;5101541;28;20058;-55
2022/11/23 09:42:12;;;;;;;79.47;11.18;;;8.50;93.40;;;;;;5143885;27;20046;-55
2022/11/23 09:45:07;;;;;;;55.58;7.03;;;8.60;93.40;;;;;;5142415;27;20054;-55
2022/11/23 09:47:50;;;;;;;42.85;6.97;;;8.60;93.50;;;;;;5127494;27;20053;-55
2022/11/23 09:50:29;;;;;;;36.80;6.25;;;8.60;93.50;;;;;;5126436;27;20033;-55
2022/11/23 09:52:54;;;;;;;55.55;8.50;;;8.60;93.80;;;;;;5099933;27;20472;-55
2022/11/23 09:55:43;;;;;;;34.95;7.30;;;8.60;93.60;;;;;;5119467;27;20052;-55
2022/11/23 09:58:12;;;;;;;45.92;7.07;;;8.60;93.60;;;;;;5111146;27;20026;-55
2022/11/23 10:00:49;;;;;;;39.28;7.13;;;8.60;93.60;;;;;;5092695;27;20042;-55
2022/11/23 10:03:16;;;;;;;56.05;7.97;;;8.60;93.50;;;;;;5125088;27;20033;-55
2022/11/23 10:06:09;;;;;;;64.70;7.97;;;8.60;93.60;;;;;;5108266;27;20035;-54
2022/11/23 10:08:40;;;;;;;61.40;9.00;;;8.70;93.60;;;;;;5095055;27;20043;-55
2022/11/23 10:11:17;;;;;;;50.83;8.52;;;8.70;93.60;;;;;;5125406;27;20122;-55
2022/11/23 10:13:44;;;;;;;62.15;8.43;;;8.70;93.60;;;;;;5121629;27;20059;-55
2022/11/23 10:16:26;;;;;;;55.13;9.30;;;8.70;93.70;;;;;;5109088;27;20027;-55
2022/11/23 10:19:12;;;;;;;71.18;7.97;;;8.70;93.70;;;;;;5118869;27;20100;-55
2022/11/23 10:22:05;;;;;;;51.92;7.82;;;8.70;93.70;;;;;;5136582;27;20091;-55
2022/11/23 10:24:37;;;;;;;58.55;10.00;;;8.70;93.70;;;;;;5142352;27;20027;-55
2022/11/23 10:27:04;;;;;;;48.50;9.60;;;8.80;93.70;;;;;;5120849;27;20028;-55
2022/11/23 10:29:32;;;;;;;62.13;8.48;;;8.70;93.80;;;;;;5130112;27;20031;-55
2022/11/23 10:31:57;;;;;;;94.70;10.95;;;8.70;93.80;;;;;;5085083;28;20054;-55
2022/11/23 10:34:48;;;;;;;67.30;9.60;;;8.80;93.90;;;;;;5119894;27;20011;-55
2022/11/23 10:37:14;;;;;;;94.00;10.93;;;8.80;93.90;;;;;;5119508;27;20053;-55
2022/11/23 10:39:40;;;;;;;66.18;9.73;;;8.80;93.90;;;;;;5119865;27;20031;-55
2022/11/23 10:42:15;;;;;;;88.03;9.82;;;8.80;93.80;;;;;;5132999;27;20035;-55
2022/11/23 10:44:41;;;;;;;89.90;13.27;;;8.80;93.90;;;;;;5115945;27;20031;-55
2022/11/23 10:47:07;;;;;;;128.60;16.17;;;8.80;93.90;;;;;;5120881;27;20058;-55
2022/11/23 10:49:33;;;;;;;74.97;11.63;;;8.80;93.90;;;;;;5115228;27;20090;-55
2022/11/23 10:52:05;;;;;;;97.55;14.05;;;8.80;94.00;;;;;;5116263;27;20034;-55
2022/11/23 10:54:35;;;;;;;107.22;14.68;;;8.90;94.00;;;;;;5116485;27;20038;-56
2022/11/23 10:57:02;;;;;;;96.45;14.48;;;8.90;94.00;;;;;;5119192;27;20023;-55
2022/11/23 10:59:36;;;;;;;102.38;13.88;;;8.90;94.00;;;;;;5123998;27;20015;-55
2022/11/23 11:02:19;;;;;;;174.10;19.48;;;8.90;94.00;;;;;;5126296;27;20468;-55
2022/11/23 11:04:45;;;;;;;128.85;14.43;;;8.90;94.00;;;;;;5138561;27;20019;-55
2022/11/23 11:07:25;;;;;;;94.65;12.98;;;9.00;94.10;;;;;;5112731;27;20042;-55
2022/11/23 11:09:58;;;;;;;107.60;13.90;;;9.00;94.00;;;;;;5106324;28;20086;-55
2022/11/23 11:12:24;;;;;;;87.03;12.40;;;9.00;93.90;;;;;;5115164;27;20031;-55
2022/11/23 11:15:08;;;;;;;117.40;14.70;;;9.00;93.90;;;;;;5137956;27;20027;-55
2022/11/23 11:17:34;;;;;;;80.93;12.30;;;9.00;93.80;;;;;;5124417;27;20038;-55
2022/11/23 11:20:01;;;;;;;151.88;17.48;;;9.00;93.80;;;;;;5113408;27;20166;-55
2022/11/23 11:22:36;;;;;;;81.57;11.85;;;9.00;93.70;;;;;;5096852;28;20476;-55
2022/11/23 11:25:05;;;;;;;82.55;11.68;;;9.00;93.70;;;;;;5106048;28;20250;-55
2022/11/23 11:27:31;;;;;;;91.53;11.15;;;9.00;93.60;;;;;;5105560;28;20124;-55
2022/11/23 11:30:06;;;;;;;87.22;11.02;;;9.00;93.60;;;;;;5105533;28;20016;-55
2022/11/23 11:32:44;;;;;;;160.02;17.42;;;9.00;93.50;;;;;;5106805;28;20127;-55
2022/11/23 11:35:14;;;;;;;112.15;13.20;;;9.00;93.50;;;;;;5106109;28;20049;-55
2022/11/23 11:37:43;;;;;;;113.60;12.35;;;9.00;93.50;;;;;;5106569;28;20128;-55
2022/11/23 11:40:30;;;;;;;109.68;13.27;;;9.00;93.60;;;;;;5125048;28;20024;-55
2022/11/23 11:43:16;;;;;;;79.38;11.30;;;9.00;93.50;;;;;;5106687;28;20091;-55
2022/11/23 11:46:13;;;;;;;82.93;12.15;;;9.00;93.40;;;;;;5103291;28;20052;-55
2022/11/23 11:48:52;;;;;;;124.63;14.75;;;9.00;93.40;;;;;;5102151;28;20040;-55
2022/11/23 11:51:31;;;;;;;74.85;11.15;;;9.00;93.50;;;;;;5105878;28;20036;-55
2022/11/23 11:54:11;;;;;;;77.38;10.93;;;9.10;93.50;;;;;;5106238;28;20028;-55
2022/11/23 11:56:49;;;;;;;72.80;11.00;;;9.10;93.40;;;;;;5124388;28;20044;-55
2022/11/23 11:59:27;;;;;;;98.25;10.65;;;9.10;93.30;;;;;;5106422;28;20125;-55
2022/11/23 12:02:06;;;;;;;104.88;12.20;;;9.10;93.20;;;;;;5105969;28;20036;-55
2022/11/23 12:04:49;;;;;;;110.65;11.85;;;9.10;93.40;;;;;;5106205;28;20091;-55
2022/11/23 12:07:56;;;;;;;71.43;10.40;;;9.20;93.00;;;;;;5105652;28;20027;-55
2022/11/23 12:10:35;;;;;;;79.30;10.80;;;9.20;93.00;;;;;;5086556;28;20048;-55
2022/11/23 12:13:01;;;;;;;80.38;9.95;;;9.20;92.90;;;;;;5106289;28;20153;-56
2022/11/23 12:15:47;;;;;;;81.85;10.60;;;9.20;92.80;;;;;;5094968;28;20049;-55
2022/11/23 12:18:22;;;;;;;96.28;9.95;;;9.20;92.70;;;;;;5087284;28;20031;-55
2022/11/23 12:21:04;;;;;;;81.55;10.32;;;9.20;92.70;;;;;;5102672;28;20031;-55
2022/11/23 12:23:44;;;;;;;82.13;11.05;;;9.20;92.70;;;;;;5120383;28;20027;-55
2022/11/23 12:26:34;;;;;;;71.68;9.82;;;9.20;92.60;;;;;;5099810;28;20085;-55
2022/11/23 12:29:09;;;;;;;79.80;9.75;;;9.20;92.50;;;;;;5106025;28;20584;-55
2022/11/23 12:31:40;;;;;;;92.13;9.90;;;9.20;92.50;;;;;;5121735;28;20036;-55
2022/11/23 12:34:24;;;;;;;79.97;9.63;;;9.20;92.40;;;;;;5111814;28;20019;-55
2022/11/23 12:37:02;;;;;;;90.25;10.43;;;9.30;92.40;;;;;;5116057;28;20137;-55
2022/11/23 12:39:53;;;;;;;108.15;12.90;;;9.20;92.40;;;;;;5087627;28;20020;-55
2022/11/23 12:42:27;;;;;;;103.28;12.00;;;9.30;92.40;;;;;;5113301;27;20429;-55
2022/11/23 12:45:15;;;;;;;87.53;11.15;;;9.30;92.30;;;;;;5117277;27;20043;-55
2022/11/23 12:48:17;;;;;;;62.47;8.90;;;9.30;92.20;;;;;;5119948;27;20027;-55
2022/11/23 12:51:10;;;;;;;65.45;9.27;;;9.30;92.20;;;;;;5064717;27;20044;-53